Agustin Olivera

Olheiro-Chefe - Liverpool Montevideo
4 Dez 2028
Segunda-feira
Processo

Personalidade

Adaptabilidade (20) Ambição (1) Controvérsia (8) Lealdade (15) Pressão (6) Profissionalismo (8) Espírito Esportivo (10) Temperamento (9)

Perfil

Estilo de Treinamento Democrático
Licença Nacional B
Determinação 6
Gestão de Pessoas 7
Motivação 6
Disciplina 8
Satisfação no Trabalho
100%
Fadiga
0%
Função Olheiro-Chefe
Salário 35.9K p/s
Contrato 14.03.2029

Desempenho

Comportamento Bom
Eficácia do Treinamento
43%
Desenvolvimento do Jogador
25%
Prevenção de Lesões
50%
Implementação Tática
40%

Eventos Recentes

Participou de uma reunião de recrutamento agora
Recomendou um alvo de transferência agora
Recomendou um alvo de transferência agora
Recomendou um alvo de transferência agora
Recomendou um alvo de transferência 7d atrás
Recomendou um alvo de transferência 7d atrás
Recomendou um alvo de transferência 7d atrás
Recomendou um alvo de transferência 7d atrás

Monitorando agora

136
Jogador Clube Status Habilidade Confiança Observado Última observação Último voto
Lisandro González Colon Negociando 84 / 95 62% 1 01.12.2028 -
Diego Méndez Tacuarembo Ativo 99 / 99 30% 1 / 1m 26.07.2028 -
Dudu Rampla Juniors Ativo 92 / 97 30% 1 / 1m 26.07.2028 -
Tobiáš Pališčák Zlin Ativo 98 / 120 40% 2 12.07.2028 -
Jan Bürger Northampton Town Ativo 113 / 131 40% 1 12.07.2028 -
Celías Ingenthron Platense Ativo 110 / 121 40% 5 03.07.2028 -
Abubakar Adams Aduana Stars Ativo 88 / 87 40% 2 03.07.2028 -
Riquelme Thompson-Jones Accrington Stanley Ativo 114 / 109 40% 4 26.05.2028 -
Bernardo Lima Porto Ativo 111 / 125 40% 4 26.05.2028 -
Olivier Leroux Mouscron Ativo 104 / 116 40% 1 25.05.2028 -
Giovanni Leoni Lincoln City Ativo 129 / 142 40% 3 24.05.2028 -
Gael Moreno Morelia Ativo 61 / 75 40% 2 21.05.2028 -
Honest Ahanor Atalanta Ativo 134 / 133 40% 2 21.05.2028 -
Enzo Acosta Tacuarembo Ativo 83 / 86 30% 1 / 1m 17.05.2028 -
Trey Nyoni Rotherham United Ativo 135 / 139 40% 1 17.05.2028 -
Josh Nichols Oldham Athletic Ativo 113 / 131 40% 6 13.05.2028 -
Daniel Banjaqui Benfica Ativo 111 / 133 40% 3 12.05.2028 -
Christos Mouzakitis Hull City Ativo 133 / 140 40% 4 12.05.2028 -
Ayden Heaven Portsmouth Ativo 134 / 146 40% 3 11.05.2028 -
Nicolò Moranduzzo Renate Ativo 86 / 103 40% 1 08.05.2028 -
Tyler Fletcher Rotherham United Ativo 111 / 110 40% 3 07.05.2028 -
Jorthy Mokio ADO Den Haag Ativo 136 / 133 40% 1 05.05.2028 -
Martim Cunha Porto Ativo 102 / 110 40% 2 03.05.2028 -
Kwesi Sorotu Badori Berekum Chelsea Ativo 102 / 113 40% 1 30.04.2028 -
Matvey Bardachev Zenit Ativo 120 / 117 40% 1 15.04.2028 -
Josh Acheampong Everton Ativo 132 / 141 40% 2 14.04.2028 -
Alejandro Almaraz NK Celje Ativo 116 / 123 40% 1 10.04.2028 -
Kiani Inge Groningen Ativo 103 / 117 40% 1 05.04.2028 -
Nahuel Leivas Montevideo City Torque Ativo 97 / 108 40% 1 07.02.2028 -
Mao Hosoya Santos Ativo 134 / 135 67% 1 20.12.2027 Aprovar
Douglas Jardel Tacuarembo Ativo 106 / 110 62% 1 20.12.2027 Aprovar
Colin Guske Orlando City Ativo 95 / 104 40% 1 30.11.2027 -
Milan van Ewijk Coventry City Ativo 139 / 130 40% 6 30.05.2027 -
Toby Collyer West Bromwich Albion Ativo 131 / 133 40% 1 30.05.2027 -
Lee Buchanan Sheffield Wednesday Ativo 129 / 131 40% 3 29.05.2027 -
Will Fish Cardiff City Ativo 109 / 117 40% 2 28.05.2027 -
Pablo García Gijón Ativo 107 / 100 40% 2 26.05.2027 -
Aaron Morley Wycombe Wanderers Ativo 115 / 121 40% 1 20.05.2027 -
Jacques Ekomié Wrexham Ativo 118 / 140 40% 2 18.05.2027 -
Luke McNally Bristol City Ativo 126 / 136 40% 4 18.05.2027 -
Bosun Lawal Stoke City Ativo 115 / 125 40% 4 15.05.2027 -
Florentino Luís Ipswich Town Ativo 147 / 144 40% 4 15.05.2027 -
Lewis Ferguson Bologna Ativo 131 / 148 40% 1 13.05.2027 -
Harry Clarke Preston Ativo 135 / 133 40% 1 12.05.2027 -
Ethan Pye Stockport County Ativo 114 / 128 40% 3 07.05.2027 -
Adrián Bernabé Parma Ativo 127 / 148 40% 1 02.05.2027 -
Dennis Cirkin Queens Park Rangers Ativo 140 / 120 40% 3 01.05.2027 -
Idris El Mizouni Leyton Orient Ativo 126 / 116 40% 1 01.05.2027 -
Habib Diarra Sunderland Ativo 152 / 146 40% 1 29.04.2027 -
Joel Bagan Cardiff City Ativo 123 / 115 40% 3 28.04.2027 -
Derry Murkin Derby County Ativo 122 / 119 40% 2 25.04.2027 -
Mitchel Bakker Modena Ativo 143 / 118 40% 1 22.04.2027 -
Max Bird Birmingham Ativo 133 / 121 40% 2 18.04.2027 -
Jack Currie Oxford United Ativo 114 / 117 40% 1 18.04.2027 -
Brian De Keersmaecker Oxford United Ativo 123 / 115 40% 1 16.04.2027 -
Hector Kyprianou Watford Ativo 115 / 128 40% 1 16.04.2027 -
Lucas Da Cunha Como Ativo 135 / 141 40% 2 15.04.2027 -
Ronnie Edwards Queens Park Rangers Ativo 127 / 130 40% 1 13.04.2027 -
Oliver Skipp Leicester City Ativo 121 / 137 40% 3 10.04.2027 -
Jacob Greaves Ipswich Town Ativo 143 / 142 40% 4 05.04.2027 -
Brooke Norton-Cuffy Hull City Ativo 139 / 138 40% 4 02.04.2027 -
Nathan Moriah-Welsh Mansfield Town Ativo 102 / 114 40% 1 02.04.2027 -
Alfie Devine Preston Ativo 128 / 118 40% 1 01.04.2027 -
Lewis Gibson Preston Ativo 116 / 124 40% 2 27.03.2027 -
Darlin Yongwa Norwich City Ativo 117 / 116 40% 3 20.03.2027 -
Georgie Gent Barnsley Ativo 96 / 108 40% 3 15.03.2027 -
Jonathan Varane Queens Park Rangers Ativo 141 / 122 40% 3 14.03.2027 -
Aidan Morris Middlesbrough Ativo 129 / 122 40% 1 11.03.2027 -
Welington Southampton Ativo 121 / 129 40% 1 10.03.2027 -
Harrison Burrows Sheffield United Ativo 125 / 126 40% 1 03.03.2027 -
Max Johnston Derby County Ativo 125 / 126 40% 2 23.02.2027 -
Tariq Lamptey Queens Park Rangers Ativo 140 / 132 40% 1 20.02.2027 -
Shea Charles Southampton Ativo 149 / 135 40% 1 18.02.2027 -
Alfie Gilchrist West Bromwich Albion Ativo 128 / 124 40% 2 16.02.2027 -
Japhet Tanganga Sheffield United Ativo 144 / 120 40% 1 16.02.2027 -
Álex Centelles Levski Ativo 135 / 114 40% 1 11.02.2027 -
Kristoffer Lund Birmingham Ativo 137 / 125 40% 1 08.02.2027 -
Aldair Faustino Levski Ativo 123 / 108 40% 1 07.02.2027 -
Brooklyn Poggenpoel Maritzburg United Ativo 94 / 107 40% 1 05.02.2027 -
Caspar Jander Southampton Ativo 141 / 130 40% 1 03.02.2027 -
Agustín Pérez Juventud Ativo 81 / 97 62% 1 21.12.2026 Aprovar
Sampson Dweh Mallorca Ativo 133 / 134 66% 1 01.12.2026 Aprovar
David Turnbull Cardiff City Ativo 109 / 112 40% 1 27.11.2026 -
Matthias Seidl Rapid Wien Ativo 128 / 118 40% 1 27.11.2026 -
Thomas Carrique Andorra Ativo 120 / 115 40% 2 26.11.2026 -
Fiete Arp OB Ativo 143 / 120 40% 1 26.11.2026 -
Oswin Appollis Orlando Pirates Ativo 123 / 111 40% 2 25.11.2026 -
Bongani Zungu Ajax Cape Town Ativo 130 / 127 40% 2 22.11.2026 -
Brian Orosco Godoy Cruz Ativo 109 / 113 40% 1 21.11.2026 -
Mariano Bracamonte Deportivo Riestra Ativo 124 / 114 40% 3 20.11.2026 -
Gorka Gorosabel Real Sociedad Ativo 98 / 107 40% 1 20.11.2026 -
Petar Stanić Ludogorets Ativo 131 / 136 40% 2 15.11.2026 -
Jordan Lotomba Bloemfontein Celtic Ativo 135 / 135 40% 2 14.11.2026 -
Marcelo Allende Mamelodi Sundowns Ativo 130 / 139 40% 1 14.11.2026 -
Juan Pablo Gallego Fehervar Ativo 98 / 110 40% 1 13.11.2026 -
Edu Expósito Espanyol Ativo 150 / 127 40% 2 12.11.2026 -
Teboho Mokoena Mamelodi Sundowns Ativo 149 / 142 40% 2 10.11.2026 -
José Bernal Ethnikos Achnas Ativo 108 / 105 40% 1 08.11.2026 -
Alexey Miranchuk Atlanta United FC Ativo 156 / 131 40% 1 04.11.2026 -
Matías Pellegrini Vélez Ativo 120 / 123 40% 1 01.11.2026 -
Diego Luna Real Salt Lake Ativo 135 / 131 40% 1 31.10.2026 -
Cheikh Sabaly Vancouver Whitecaps Ativo 113 / 120 40% 1 28.10.2026 -
Santiago Toloza O'Higgins Ativo 114 / 124 40% 1 27.10.2026 -
Bradley Zwane SuperSport United Ativo 119 / 105 40% 1 27.10.2026 -
Paxten Aaronson Colorado Rapids Ativo 134 / 137 40% 1 18.10.2026 -
Amin Boudri Los Angeles Football Club Ativo 114 / 115 40% 2 15.10.2026 -
Iván Angulo Orlando City Ativo 129 / 128 40% 1 15.10.2026 -
Manu Morlanes Mallorca Ativo 131 / 135 40% 1 14.10.2026 -
Elias Achouri San Diego Football Club Ativo 131 / 121 40% 1 13.10.2026 -
Djordje Mihailović Toronto FC Ativo 123 / 133 40% 1 12.10.2026 -
Conrad Wallem Djurgarden Ativo 140 / 117 40% 1 08.10.2026 -
Gaspar Duarte Rosario Central Ativo 111 / 113 40% 1 08.10.2026 -
Joaquín Pereyra Minnesota United FC Ativo 136 / 140 40% 1 07.10.2026 -
Alejandro Pozo Standard Liege Ativo 115 / 115 40% 1 06.10.2026 -
Kenji Cabrera Vancouver Whitecaps Ativo 117 / 127 40% 1 05.10.2026 -
Luis Pavez Muñoz O'Higgins Ativo 120 / 122 40% 1 09.09.2026 -
Christian Rivera Pachuca Ativo 117 / 119 40% 1 08.09.2026 -
Richard Ledezma Guadalajara Ativo 122 / 143 40% 1 07.09.2026 -
Sebastián Guzmán Deportes Tolima Ativo 117 / 117 40% 1 26.08.2026 -
Fidel Ambríz Monterrey Ativo 116 / 140 40% 1 26.08.2026 -
Enzo Giménez Queretaro Ativo 130 / 117 40% 1 24.08.2026 -
Dylan Lozano Aguilas Doradas Ativo 102 / 106 40% 1 21.08.2026 -
Ramiro Ruiz Rodríguez Atlético Tucumán Ativo 118 / 124 40% 1 19.08.2026 -
Jeremy Márquez Cruz Azul Ativo 134 / 130 40% 1 19.08.2026 -
José David Ramírez Leon Ativo 103 / 111 40% 1 18.08.2026 -
Angel Zamudio Sport Huancayo Ativo 112 / 116 40% 1 07.08.2026 -
Carlos Moreno Pachuca Ativo 116 / 133 40% 1 07.08.2026 -
Matías Dufour Sportivo Trinidense Ativo 109 / 113 40% 1 05.08.2026 -
Gonzalo Falcón Cienciano Ativo 116 / 112 40% 1 05.08.2026 -
Beycker Velásquez Zamora Ativo 97 / 96 40% 1 04.08.2026 -
Jorge Hernández Tijuana Ativo 126 / 111 40% 1 04.08.2026 -
Facundo Miño Deportivo Riestra Ativo 117 / 115 40% 1 03.08.2026 -
James Bacca La Equidad Ativo 126 / 126 40% 1 03.08.2026 -
Lautaro Ríos Banfield Ativo 117 / 121 40% 1 02.08.2026 -
Bautista Barros Schelotto Gimnasia La Plata Ativo 109 / 109 40% 1 01.08.2026 -
Juan Cruz Komar Rosario Central Ativo 122 / 121 40% 1 01.08.2026 -